Time;durP1;ratioP1;P1;durP2;ratioP2;P2;SDS_P1;SDS_P2;PMS_P1;PMS_P2;Temp;Humidity;BMP_temperature;BMP_pressure;BME280_temperature;BME280_humidity;BME280_pressure;Samples;Min_cycle;Max_cycle;Signal;HPM_P1;HPM_P2
2022/05/09 00:00:49;;;;;;;20.57;15.13;;;;;;;15.86;62.10;100931.05;1719247;82;21337;-73
2022/05/09 00:03:16;;;;;;;23.03;16.53;;;;;;;15.82;62.31;100938.09;1720865;82;21730;-74
2022/05/09 00:05:44;;;;;;;22.93;15.77;;;;;;;15.80;62.60;100942.44;1717943;82;21499;-74
2022/05/09 00:08:11;;;;;;;25.40;18.10;;;;;;;15.76;62.94;100954.03;1719324;82;21354;-74
2022/05/09 00:10:39;;;;;;;24.13;17.33;;;;;;;15.69;63.75;100956.53;1721271;82;21795;-73
2022/05/09 00:13:06;;;;;;;22.47;17.50;;;;;;;15.61;64.33;100951.70;1720641;81;21268;-74
2022/05/09 00:15:36;;;;;;;23.90;17.63;;;;;;;15.53;64.69;100949.63;1712079;83;21249;-74
2022/05/09 00:18:05;;;;;;;24.07;17.30;;;;;;;15.45;64.94;100948.31;1715371;82;21267;-75
2022/05/09 00:20:33;;;;;;;27.20;19.37;;;;;;;15.39;65.38;100955.35;1702742;82;21364;-74
2022/05/09 00:23:01;;;;;;;23.07;17.73;;;;;;;15.31;65.69;100949.23;1723839;82;21336;-72
2022/05/09 00:25:28;;;;;;;24.90;18.47;;;;;;;15.27;65.87;100942.77;1725177;82;21255;-73
2022/05/09 00:27:55;;;;;;;23.73;18.43;;;;;;;15.21;65.97;100949.55;1724220;82;21659;-76
2022/05/09 00:30:22;;;;;;;24.07;18.60;;;;;;;15.18;66.07;100950.09;1719818;82;21736;-75
2022/05/09 00:32:49;;;;;;;25.50;19.23;;;;;;;15.13;66.25;100942.59;1718047;82;21355;-72
2022/05/09 00:35:17;;;;;;;25.83;19.50;;;;;;;15.09;66.47;100946.38;1721054;82;21416;-73
2022/05/09 00:37:44;;;;;;;25.27;19.47;;;;;;;15.05;66.65;100952.05;1713817;82;21837;-74
2022/05/09 00:40:13;;;;;;;27.30;19.60;;;;;;;14.98;66.81;100949.67;1720314;82;21817;-74
2022/05/09 00:42:52;;;;;;;23.77;18.20;;;;;;;14.92;66.96;100947.28;1720898;82;21258;-74
2022/05/09 00:45:22;;;;;;;28.40;19.50;;;;;;;14.87;67.09;100948.13;1700109;82;21363;-74
2022/05/09 00:47:50;;;;;;;24.92;19.07;;;;;;;14.84;67.29;100955.39;1724528;81;21314;-73
2022/05/09 00:50:25;;;;;;;25.87;19.00;;;;;;;14.78;67.47;100949.77;1717934;82;21067;-74
2022/05/09 00:53:06;;;;;;;25.50;18.50;;;;;;;14.74;67.59;100950.86;1720471;82;21315;-74
2022/05/09 00:55:45;;;;;;;23.43;17.10;;;;;;;14.71;67.72;100955.44;1721598;82;21317;-73
2022/05/09 00:58:18;;;;;;;24.57;17.83;;;;;;;14.67;67.83;100945.48;1723432;82;21303;-75
2022/05/09 01:00:45;;;;;;;23.90;17.57;;;;;;;14.56;68.18;100946.07;1719233;82;21240;-73
2022/05/09 01:03:18;;;;;;;24.53;17.70;;;;;;;14.49;68.44;100943.64;1718905;82;21013;-76
2022/05/09 01:05:50;;;;;;;22.10;15.77;;;;;;;14.45;68.57;100945.81;1741965;81;21323;-72
2022/05/09 01:08:14;;;;;;;22.47;15.03;;;;;;;14.51;68.54;100954.14;1722734;81;21327;-74
2022/05/09 01:10:41;;;;;;;19.20;15.03;;;;;;;14.46;68.68;100954.14;1720927;82;21899;-73
2022/05/09 01:13:15;;;;;;;19.30;14.03;;;;;;;14.51;68.57;100946.07;1720945;82;21092;-74
2022/05/09 01:15:45;;;;;;;22.70;14.97;;;;;;;14.51;68.61;100946.91;1693068;82;21366;-73
2022/05/09 01:18:12;;;;;;;18.63;13.70;;;;;;;14.51;68.67;100942.04;1721329;82;21933;-74
2022/05/09 01:20:39;;;;;;;17.87;13.47;;;;;;;14.51;68.70;100948.25;1721715;82;21306;-74
2022/05/09 01:23:08;;;;;;;18.87;13.30;;;;;;;14.52;68.71;100950.39;1721462;82;21462;-74
2022/05/09 01:25:38;;;;;;;14.00;10.50;;;;;;;14.53;68.84;100960.06;1726966;81;21409;-73
2022/05/09 01:28:05;;;;;;;15.77;10.90;;;;;;;14.52;69.06;100963.83;1721134;82;21954;-73
2022/05/09 01:30:40;;;;;;;13.47;9.57;;;;;;;14.51;69.12;100964.38;1718123;83;22128;-74
2022/05/09 01:33:17;;;;;;;11.93;8.53;;;;;;;14.52;69.12;100965.98;1715166;83;21192;-74
2022/05/09 01:35:58;;;;;;;11.10;7.47;;;;;;;14.53;69.10;100963.55;1719922;82;21208;-74
2022/05/09 01:38:52;;;;;;;9.98;7.62;;;;;;;14.55;68.97;100965.98;1721280;83;21287;-75
2022/05/09 01:41:20;;;;;;;9.33;7.33;;;;;;;14.58;68.88;100970.81;1695242;83;21089;-74
2022/05/09 01:43:51;;;;;;;9.40;7.30;;;;;;;14.63;68.79;100968.09;1593183;82;9999927;-74
2022/05/09 01:46:21;;;;;;;9.33;6.30;;;;;;;14.67;68.70;100965.11;1727960;81;21112;-74
2022/05/09 01:51:38;;;;;;;8.73;6.63;;;;;;;14.74;68.63;100976.41;1703455;83;21277;-72
2022/05/09 01:54:05;;;;;;;9.77;6.93;;;;;;;14.66;68.80;100978.30;1726078;81;21111;-74
2022/05/09 01:56:35;;;;;;;9.00;7.20;;;;;;;14.72;68.64;100978.55;1724627;81;21236;-74
2022/05/09 01:59:02;;;;;;;9.17;7.37;;;;;;;14.77;68.42;100980.41;1723323;83;21330;-74
2022/05/09 02:01:39;;;;;;;11.27;8.07;;;;;;;14.77;68.34;100981.23;1722756;82;21279;-73
2022/05/09 02:04:06;;;;;;;10.90;7.33;;;;;;;14.78;68.27;100975.31;1740681;80;21233;-75
2022/05/09 02:06:33;;;;;;;9.63;7.67;;;;;;;14.79;68.26;100980.95;1724053;81;21211;-73
2022/05/09 02:09:03;;;;;;;9.40;7.10;;;;;;;14.78;68.28;100985.52;1718807;83;21347;-74
2022/05/09 02:11:31;;;;;;;7.70;6.20;;;;;;;14.81;68.30;100988.21;1718539;83;38964;-74
2022/05/09 02:13:59;;;;;;;8.43;6.30;;;;;;;14.70;68.57;100987.41;1716488;82;21327;-75
2022/05/09 02:16:26;;;;;;;7.30;5.87;;;;;;;14.69;68.67;100991.19;1721784;82;21108;-75
2022/05/09 02:18:53;;;;;;;6.63;5.40;;;;;;;14.69;68.78;100999.80;1721414;82;22188;-74
2022/05/09 02:21:20;;;;;;;7.30;6.00;;;;;;;14.70;68.90;101001.41;1718955;82;21945;-75
2022/05/09 02:23:48;;;;;;;8.33;5.67;;;;;;;14.82;68.76;101001.11;1718506;82;22228;-74
2022/05/09 02:26:14;;;;;;;7.37;5.60;;;;;;;14.76;69.00;101011.88;1719426;82;21422;-74
2022/05/09 02:28:41;;;;;;;6.03;4.67;;;;;;;14.76;68.92;101009.18;1720852;82;21659;-74
2022/05/09 02:31:08;;;;;;;4.77;4.00;;;;;;;14.78;68.84;101008.92;1721391;82;21361;-76
2022/05/09 02:33:35;;;;;;;4.30;3.10;;;;;;;14.82;68.46;101012.67;1713285;82;22296;-74
2022/05/09 02:36:02;;;;;;;4.60;2.73;;;;;;;14.83;68.13;101016.16;1720764;82;21181;-74
2022/05/09 02:38:31;;;;;;;4.13;2.90;;;;;;;14.83;67.99;101024.23;1718707;82;21367;-74
2022/05/09 02:40:58;;;;;;;2.97;2.23;;;;;;;14.82;68.07;101019.94;1720850;82;21241;-75
2022/05/09 02:43:25;;;;;;;3.17;2.23;;;;;;;14.93;67.99;101022.84;1595244;82;9999710;-75
2022/05/09 02:45:52;;;;;;;6.93;2.63;;;;;;;14.96;67.88;101023.64;1708239;83;28587;-75
2022/05/09 02:48:19;;;;;;;3.70;2.60;;;;;;;14.85;68.14;101020.73;1720220;82;21139;-73
2022/05/09 02:50:46;;;;;;;3.77;2.47;;;;;;;14.82;68.36;101030.70;1708626;83;21306;-74
2022/05/09 02:53:13;;;;;;;4.30;2.50;;;;;;;14.94;68.26;101033.89;1715668;82;21221;-75
2022/05/09 02:55:40;;;;;;;3.97;2.50;;;;;;;14.91;68.44;101032.55;1705635;82;21269;-75
2022/05/09 02:58:07;;;;;;;3.73;2.50;;;;;;;14.98;68.43;101033.60;1718791;82;21835;-74
2022/05/09 03:00:35;;;;;;;3.77;2.27;;;;;;;14.97;68.47;101033.31;1701623;82;21299;-75
2022/05/09 03:05:50;;;;;;;3.67;2.50;;;;;;;14.94;68.71;101038.73;1706953;81;21307;-74
2022/05/09 03:08:18;;;;;;;3.23;2.37;;;;;;;14.86;68.99;101038.47;1718474;82;21471;-73
2022/05/09 03:10:45;;;;;;;3.47;2.30;;;;;;;14.87;69.12;101038.73;1711968;82;21329;-73
2022/05/09 03:13:13;;;;;;;3.73;2.40;;;;;;;14.85;69.25;101041.70;1717425;82;21391;-75
2022/05/09 03:15:43;;;;;;;3.37;2.40;;;;;;;14.84;69.29;101046.00;1713935;82;21993;-75
2022/05/09 03:18:10;;;;;;;3.27;2.30;;;;;;;14.84;69.27;101050.03;1700511;82;21259;-75
2022/05/09 03:20:38;;;;;;;4.00;2.50;;;;;;;14.84;69.28;101050.86;1721459;82;21314;-75
2022/05/09 03:23:07;;;;;;;4.27;2.60;;;;;;;15.00;69.05;101055.63;1725667;82;21305;-75
2022/05/09 03:25:35;;;;;;;3.60;2.23;;;;;;;14.93;69.19;101053.78;1724412;82;21130;-75
2022/05/09 03:28:04;;;;;;;4.40;2.50;;;;;;;15.06;68.75;101062.61;1721100;82;21288;-75
2022/05/09 03:30:31;;;;;;;4.53;2.37;;;;;;;15.09;68.40;101069.34;1721061;82;21268;-76
2022/05/09 03:32:58;;;;;;;3.40;2.17;;;;;;;15.11;68.06;101073.38;1717995;82;21305;-76
2022/05/09 03:35:25;;;;;;;3.03;2.20;;;;;;;15.15;67.82;101074.97;1706895;83;21368;-74
2022/05/09 03:37:53;;;;;;;3.90;2.20;;;;;;;15.16;67.72;101073.87;1721234;83;21294;-75
2022/05/09 03:40:22;;;;;;;3.10;2.10;;;;;;;15.19;67.62;101071.98;1721496;83;21291;-75
2022/05/09 03:42:53;;;;;;;3.35;2.12;;;;;;;15.21;67.59;101085.44;1720761;82;21318;-75
2022/05/09 03:45:20;;;;;;;4.13;2.40;;;;;;;15.20;67.57;101081.15;1720965;82;22307;-76
2022/05/09 03:47:49;;;;;;;3.53;2.20;;;;;;;15.25;67.61;101083.80;1720950;82;21261;-75
2022/05/09 03:50:18;;;;;;;4.07;2.23;;;;;;;15.25;67.62;101083.80;1722687;82;21322;-76
2022/05/09 03:52:49;;;;;;;3.60;2.20;;;;;;;15.27;67.59;101089.44;1710085;82;22235;-77
2022/05/09 03:55:16;;;;;;;3.40;2.30;;;;;;;15.32;67.19;101086.20;1718875;81;21479;-75
2022/05/09 03:57:49;;;;;;;3.10;2.33;;;;;;;15.36;67.12;101090.48;1722212;82;21213;-76
2022/05/09 04:00:18;;;;;;;3.23;1.90;;;;;;;15.40;67.08;101096.41;1708292;82;21254;-76
2022/05/09 04:02:47;;;;;;;3.10;2.10;;;;;;;15.39;66.77;101096.12;1721516;81;21136;-76
2022/05/09 04:05:17;;;;;;;4.13;2.13;;;;;;;15.38;66.51;101094.52;1721145;82;21402;-75
2022/05/09 04:07:48;;;;;;;4.50;2.42;;;;;;;15.37;66.06;101098.84;1707740;83;21302;-76
2022/05/09 04:10:20;;;;;;;2.73;1.90;;;;;;;15.38;65.78;101109.87;1720521;82;21093;-78
2022/05/09 04:12:47;;;;;;;3.80;2.08;;;;;;;15.36;65.61;101103.94;1720077;81;21326;-76
2022/05/09 04:17:59;;;;;;;4.90;2.20;;;;;;;15.42;65.56;101113.61;1726037;81;21251;-75
2022/05/09 04:20:29;;;;;;;3.60;2.20;;;;;;;15.34;65.73;101117.69;1724296;82;21202;-77
2022/05/09 04:22:59;;;;;;;3.60;2.30;;;;;;;15.29;66.09;101131.70;1724506;82;21436;-76
2022/05/09 04:25:29;;;;;;;3.33;2.30;;;;;;;15.30;66.13;101123.37;1720373;82;21242;-76
2022/05/09 04:27:57;;;;;;;3.10;2.20;;;;;;;15.42;65.78;101139.98;1720425;82;21326;-75
2022/05/09 04:30:25;;;;;;;3.77;2.43;;;;;;;15.40;65.45;101127.88;1722043;82;21276;-77
2022/05/09 04:32:52;;;;;;;3.90;2.23;;;;;;;15.38;65.62;101135.44;1720892;82;21871;-77
2022/05/09 04:35:21;;;;;;;4.93;3.20;;;;;;;15.38;65.55;101142.97;1721176;82;21327;-77
2022/05/09 04:37:49;;;;;;;3.50;2.40;;;;;;;15.35;65.46;101142.72;1721789;82;21760;-78
2022/05/09 04:40:20;;;;;;;3.67;2.17;;;;;;;15.35;65.35;101135.98;1722085;81;21787;-77
2022/05/09 04:42:47;;;;;;;2.97;2.07;;;;;;;15.38;64.94;101141.63;1713621;81;21373;-76
2022/05/09 04:45:15;;;;;;;3.43;2.07;;;;;;;15.39;64.56;101141.08;1710290;81;21269;-73
2022/05/09 04:47:43;;;;;;;3.07;2.20;;;;;;;15.39;64.26;101150.50;1725784;82;21377;-77
2022/05/09 04:50:13;;;;;;;4.53;2.43;;;;;;;15.40;64.07;101155.63;1723315;82;21444;-74
2022/05/09 04:52:40;;;;;;;3.30;2.17;;;;;;;15.45;64.06;101153.45;1720860;82;21219;-78
2022/05/09 04:55:13;;;;;;;3.77;2.30;;;;;;;15.49;64.01;101156.64;1720755;82;21350;-77
2022/05/09 04:57:42;;;;;;;4.03;2.40;;;;;;;15.59;63.58;101157.15;1723052;82;21239;-77
2022/05/09 05:00:14;;;;;;;3.33;2.63;;;;;;;15.64;62.98;101154.99;1722324;82;22331;-78
2022/05/09 05:02:41;;;;;;;3.10;2.30;;;;;;;15.62;62.88;101166.57;1722994;82;27206;-79
2022/05/09 05:05:08;;;;;;;3.60;2.70;;;;;;;15.62;62.65;101182.19;1722998;82;21069;-77
2022/05/09 05:07:37;;;;;;;4.90;2.60;;;;;;;15.47;62.90;101180.91;1720705;82;21379;-76
2022/05/09 05:10:06;;;;;;;3.70;2.73;;;;;;;15.58;62.59;101190.55;1720426;82;21335;-76
2022/05/09 05:12:37;;;;;;;4.07;2.93;;;;;;;15.56;61.90;101196.73;1718895;81;21485;-77
2022/05/09 05:15:07;;;;;;;4.07;2.97;;;;;;;15.53;61.63;101191.10;1718801;82;21008;-77
2022/05/09 05:17:34;;;;;;;4.47;2.67;;;;;;;15.34;61.92;101198.98;1721215;82;21501;-76
2022/05/09 05:20:02;;;;;;;6.80;2.80;;;;;;;15.27;62.15;101190.36;1714192;82;22126;-76
2022/05/09 05:22:30;;;;;;;4.90;3.13;;;;;;;15.25;62.31;101200.87;1721160;82;21346;-77
2022/05/09 05:24:57;;;;;;;4.93;3.10;;;;;;;15.26;62.04;101201.67;1721579;82;21163;-74
2022/05/09 05:27:26;;;;;;;4.13;2.90;;;;;;;15.33;62.00;101202.19;1677655;82;21809;-78
2022/05/09 05:29:59;;;;;;;3.47;2.70;;;;;;;15.78;61.66;101212.59;1720021;82;21350;-78
2022/05/09 05:32:29;;;;;;;3.57;2.47;;;;;;;15.78;61.66;101212.59;1721940;82;21480;-76
2022/05/09 05:34:56;;;;;;;3.83;2.87;;;;;;;15.97;60.28;101202.01;1719788;82;21379;-77
2022/05/09 05:37:22;;;;;;;4.03;3.00;;;;;;;16.33;59.65;101208.55;1722952;82;21331;-78
2022/05/09 05:39:49;;;;;;;4.87;3.40;;;;;;;16.33;59.65;101208.55;1721464;82;21434;-79
2022/05/09 05:42:18;;;;;;;3.50;2.97;;;;;;;16.46;58.99;101217.36;1722828;82;22135;-78
2022/05/09 05:44:47;;;;;;;5.33;3.30;;;;;;;16.55;58.51;101210.80;1721291;81;21960;-78
2022/05/09 05:47:17;;;;;;;5.57;3.33;;;;;;;16.67;58.05;101205.07;1719866;81;21508;-78
2022/05/09 05:49:44;;;;;;;4.03;2.98;;;;;;;16.61;58.32;101213.19;1707561;82;21584;-78
2022/05/09 05:52:12;;;;;;;5.10;3.00;;;;;;;16.51;57.38;101224.05;1721907;82;21059;-76
2022/05/09 05:54:41;;;;;;;3.73;3.00;;;;;;;16.51;57.38;101224.05;1721467;82;21630;-76
2022/05/09 05:57:21;;;;;;;4.27;3.00;;;;;;;16.32;56.87;101227.97;1721633;82;21686;-77
2022/05/09 05:59:57;;;;;;;4.37;2.90;;;;;;;16.16;56.96;101232.63;1721873;83;21381;-76
2022/05/09 06:02:24;;;;;;;3.03;2.33;;;;;;;16.09;56.83;101233.48;1725051;82;22325;-78
2022/05/09 06:04:53;;;;;;;4.10;2.63;;;;;;;16.02;56.36;101238.34;1723249;82;21597;-77
2022/05/09 06:07:20;;;;;;;4.70;2.70;;;;;;;16.02;56.36;101238.34;1723540;82;21367;-77
2022/05/09 06:09:47;;;;;;;4.27;2.57;;;;;;;16.00;55.25;101231.09;1722203;82;21501;-77
2022/05/09 06:12:16;;;;;;;3.60;2.20;;;;;;;15.95;55.80;101238.64;1599622;82;9999960;-72
2022/05/09 06:14:44;;;;;;;3.93;2.50;;;;;;;16.01;55.34;101246.17;1721231;82;21045;-71
2022/05/09 06:17:17;;;;;;;3.63;2.50;;;;;;;16.12;54.93;101248.27;1717243;82;21610;-72
2022/05/09 06:20:10;;;;;;;;;;;;;;;;;;;;;
2022/05/09 06:22:37;;;;;;;4.90;2.60;;;;;;;16.45;54.42;101248.62;1711838;82;21480;-71
2022/05/09 06:25:06;;;;;;;4.60;2.65;;;;;;;16.61;54.06;101246.09;1721232;82;21465;-71
2022/05/09 06:27:39;;;;;;;4.30;2.50;;;;;;;16.71;53.72;101252.77;1721880;82;21051;-71
2022/05/09 06:30:15;;;;;;;4.17;2.30;;;;;;;17.13;52.18;101251.94;1723062;82;21807;-70
2022/05/09 06:33:08;;;;;;;3.43;2.07;;;;;;;17.13;52.18;101251.94;1696709;83;21549;-72
2022/05/09 06:35:43;;;;;;;4.23;2.43;;;;;;;17.37;52.21;101246.02;1715831;82;21734;-72
2022/05/09 06:38:17;;;;;;;3.37;2.30;;;;;;;17.68;52.13;101259.22;1698143;82;21754;-71
2022/05/09 06:40:50;;;;;;;3.97;2.30;;;;;;;17.72;51.54;101242.69;1718040;82;21764;-71
2022/05/09 06:43:17;;;;;;;3.20;1.80;;;;;;;17.75;50.18;101251.02;1714325;82;22428;-70
2022/05/09 06:45:44;;;;;;;4.27;1.97;;;;;;;17.78;48.19;101249.67;1716026;83;22221;-72
2022/05/09 06:48:12;;;;;;;2.17;1.60;;;;;;;17.87;46.52;101249.30;1718420;82;22441;-70
2022/05/09 06:50:39;;;;;;;4.40;1.77;;;;;;;17.74;47.01;101250.77;1712093;82;21966;-72
2022/05/09 06:53:06;;;;;;;3.53;1.67;;;;;;;17.73;46.23;101242.94;1721084;82;21762;-72
2022/05/09 06:55:33;;;;;;;4.07;1.60;;;;;;;17.70;46.18;101251.09;1720134;82;21859;-72
2022/05/09 06:58:08;;;;;;;2.57;1.57;;;;;;;17.70;44.87;101249.75;1721352;82;21723;-72
2022/05/09 07:00:35;;;;;;;2.17;1.13;;;;;;;17.80;43.62;101251.52;1720934;82;21812;-70
2022/05/09 07:03:03;;;;;;;1.87;1.30;;;;;;;17.80;43.62;101251.52;1719380;82;21490;-72
2022/05/09 07:05:30;;;;;;;2.20;1.40;;;;;;;18.00;43.14;101259.41;1719030;82;21807;-73
2022/05/09 07:07:57;;;;;;;2.47;1.50;;;;;;;18.08;43.52;101256.60;1715070;81;21842;-71
2022/05/09 07:10:27;;;;;;;3.93;1.60;;;;;;;18.08;43.53;101261.20;1731518;81;21064;-71
2022/05/09 07:12:55;;;;;;;4.23;2.20;;;;;;;18.11;43.86;101268.19;1589573;82;9999964;-71
2022/05/09 07:15:25;;;;;;;2.77;1.93;;;;;;;18.18;45.35;101270.53;1715345;82;21100;-70
2022/05/09 07:17:53;;;;;;;3.37;1.90;;;;;;;18.12;45.69;101271.14;1706693;82;21609;-72
2022/05/09 07:20:21;;;;;;;2.93;1.90;;;;;;;17.97;46.22;101278.91;1699567;83;21075;-73
2022/05/09 07:22:51;;;;;;;2.63;1.73;;;;;;;17.88;46.56;101271.17;1719820;82;22613;-73
2022/05/09 07:25:18;;;;;;;4.27;1.97;;;;;;;17.92;45.96;101277.61;1712288;82;21774;-72
2022/05/09 07:27:46;;;;;;;2.83;1.70;;;;;;;17.94;45.42;101279.48;1711512;82;21817;-72
2022/05/09 07:30:16;;;;;;;3.03;1.70;;;;;;;17.93;45.10;101277.88;1719364;82;21170;-73
2022/05/09 07:32:45;;;;;;;2.73;1.60;;;;;;;17.91;45.20;101273.85;1718765;82;21087;-73
2022/05/09 07:35:15;;;;;;;3.17;1.60;;;;;;;17.88;44.36;101287.39;1705383;82;21776;-73
2022/05/09 07:37:42;;;;;;;4.33;1.70;;;;;;;17.77;43.88;101279.95;1720795;82;21816;-72
2022/05/09 07:40:11;;;;;;;3.07;1.70;;;;;;;17.67;43.22;101292.71;1720163;82;21732;-71
2022/05/09 07:42:40;;;;;;;3.33;1.57;;;;;;;17.67;43.22;101292.71;1709746;82;21044;-72
2022/05/09 07:45:08;;;;;;;3.53;1.50;;;;;;;17.66;43.03;101295.16;1720715;82;21767;-73
2022/05/09 07:47:35;;;;;;;2.63;1.60;;;;;;;17.93;41.72;101298.16;1721612;82;21801;-73
2022/05/09 07:50:02;;;;;;;2.83;1.50;;;;;;;17.93;41.72;101298.16;1721063;82;22003;-72
2022/05/09 07:52:29;;;;;;;2.50;1.50;;;;;;;17.99;41.58;101290.77;1718612;82;21062;-73
2022/05/09 07:54:57;;;;;;;4.30;1.77;;;;;;;18.16;41.47;101290.28;1715529;82;21051;-73
2022/05/09 07:57:25;;;;;;;3.57;2.07;;;;;;;18.16;41.47;101290.28;1718906;82;21049;-73
2022/05/09 07:59:53;;;;;;;3.87;1.57;;;;;;;18.23;41.21;101301.03;1719482;83;22190;-74
2022/05/09 08:02:22;;;;;;;3.60;1.50;;;;;;;18.27;40.16;101293.13;1716720;82;21252;-70
2022/05/09 08:04:49;;;;;;;2.73;1.43;;;;;;;18.25;40.21;101299.38;1714713;83;21118;-73
2022/05/09 08:07:17;;;;;;;3.13;1.47;;;;;;;18.34;40.71;101301.69;1718852;82;21114;-72
2022/05/09 08:09:44;;;;;;;2.93;1.40;;;;;;;18.49;40.78;101295.25;1720989;82;21051;-72
2022/05/09 08:12:12;;;;;;;4.07;1.97;;;;;;;18.55;38.89;101310.32;1600972;81;10000516;-73
2022/05/09 08:14:39;;;;;;;3.87;1.53;;;;;;;18.36;38.98;101309.50;1719612;82;22070;-74
2022/05/09 08:17:09;;;;;;;2.77;1.60;;;;;;;18.24;39.63;101309.94;1717111;82;21043;-73
2022/05/09 08:19:37;;;;;;;3.77;1.20;;;;;;;18.22;39.70;101308.06;1717157;82;21088;-72
2022/05/09 08:22:07;;;;;;;3.07;1.43;;;;;;;18.31;39.09;101302.27;1718173;82;21131;-75
2022/05/09 08:24:36;;;;;;;4.08;1.35;;;;;;;18.41;38.80;101304.03;1707339;83;21896;-73
2022/05/09 08:27:03;;;;;;;3.30;1.33;;;;;;;18.44;38.64;101319.13;1721323;82;21115;-72
2022/05/09 08:29:30;;;;;;;2.53;1.20;;;;;;;18.38;38.37;101314.87;1719305;82;21186;-72
2022/05/09 08:31:59;;;;;;;3.60;1.40;;;;;;;18.28;38.16;101317.17;1702907;82;21580;-72
2022/05/09 08:34:27;;;;;;;3.47;1.60;;;;;;;18.28;38.54;101315.02;1714645;82;21732;-73
2022/05/09 08:36:56;;;;;;;2.67;1.30;;;;;;;18.43;38.01;101305.36;1709668;82;21125;-74
2022/05/09 08:39:26;;;;;;;3.10;1.30;;;;;;;18.68;37.83;101315.55;1702449;82;21648;-73
2022/05/09 08:42:07;;;;;;;2.97;1.20;;;;;;;18.91;37.73;101322.02;1709042;82;21143;-73
2022/05/09 08:44:58;;;;;;;3.30;1.20;;;;;;;19.03;36.90;101316.16;1713177;82;21079;-74
2022/05/09 08:47:52;;;;;;;2.67;1.30;;;;;;;18.96;36.60;101317.89;1709122;82;21011;-74
2022/05/09 08:50:24;;;;;;;2.27;1.33;;;;;;;18.74;35.81;101319.83;1721548;83;21203;-72
2022/05/09 08:53:09;;;;;;;4.87;1.30;;;;;;;18.49;35.44;101322.30;1720991;82;21073;-73
2022/05/09 08:55:40;;;;;;;2.40;1.07;;;;;;;18.46;36.41;101320.20;1703569;82;21127;-72
2022/05/09 08:58:22;;;;;;;3.17;1.40;;;;;;;18.60;35.35;101327.84;1712655;82;21084;-74
2022/05/09 09:00:52;;;;;;;1.60;1.00;;;;;;;18.71;35.50;101327.95;1712189;82;21151;-75
2022/05/09 09:03:38;;;;;;;2.17;1.13;;;;;;;18.87;34.75;101325.06;1702067;82;21093;-72
2022/05/09 09:06:19;;;;;;;2.00;1.00;;;;;;;18.88;34.59;101324.75;1721384;81;21056;-73
2022/05/09 09:08:59;;;;;;;2.70;1.10;;;;;;;18.81;34.70;101315.41;1710644;82;21142;-73
2022/05/09 09:11:47;;;;;;;3.27;1.23;;;;;;;18.83;34.86;101318.08;1716258;82;21103;-73
2022/05/09 09:14:25;;;;;;;3.80;1.20;;;;;;;18.87;34.37;101319.64;1640701;85;21066;-73
2022/05/09 09:17:27;;;;;;;2.20;1.00;;;;;;;18.87;33.38;101317.73;1696345;82;21095;-73
2022/05/09 09:20:12;;;;;;;3.13;1.50;;;;;;;18.90;32.80;101318.50;1715722;82;21120;-71
2022/05/09 09:23:07;;;;;;;2.93;1.40;;;;;;;18.93;33.66;101319.83;1713948;82;21559;-71
2022/05/09 09:26:04;;;;;;;2.90;1.40;;;;;;;18.97;33.53;101320.28;1714296;82;21595;-71
2022/05/09 09:28:47;;;;;;;3.07;1.30;;;;;;;18.97;32.69;101320.84;1718310;82;21068;-70
2022/05/09 09:31:11;;;;;;;3.40;1.40;;;;;;;18.80;32.23;101321.92;1707069;82;21146;-71
2022/05/09 09:33:43;;;;;;;2.80;1.10;;;;;;;18.67;32.80;101328.84;1715154;82;21022;-72
2022/05/09 09:36:12;;;;;;;2.20;1.10;;;;;;;18.67;33.23;101324.78;1712395;82;21123;-72
2022/05/09 09:38:54;;;;;;;3.60;1.40;;;;;;;18.79;32.72;101327.89;1715111;82;21096;-72
2022/05/09 09:41:25;;;;;;;3.90;1.30;;;;;;;18.91;32.28;101317.40;1720748;82;21035;-77
2022/05/09 09:44:13;;;;;;;2.07;1.20;;;;;;;19.08;32.42;101326.34;1716208;82;21822;-77
2022/05/09 09:47:25;;;;;;;2.30;1.30;;;;;;;19.21;31.08;101334.26;1711504;82;21141;-76
2022/05/09 09:50:17;;;;;;;3.67;1.37;;;;;;;19.27;29.20;101331.72;1725035;81;21079;-78
2022/05/09 09:52:56;;;;;;;;;;;;;;;19.52;29.54;101333.76;1722539;81;21028;-78
2022/05/09 09:55:33;;;;;;;3.93;1.10;;;;;;;19.70;28.81;101322.05;1721352;81;20209;-77
2022/05/09 09:58:24;;;;;;;3.77;1.33;;;;;;;19.68;29.12;101320.22;1721351;82;21539;-78
2022/05/09 10:01:15;;;;;;;1.98;0.90;;;;;;;19.43;29.57;101333.08;1715709;82;21035;-79
2022/05/09 10:03:45;;;;;;;3.47;1.67;;;;;;;19.24;29.59;101333.67;1719404;81;21669;-75
2022/05/09 10:06:19;;;;;;;3.53;1.10;;;;;;;19.14;29.18;101333.84;1723000;82;21507;-75
2022/05/09 10:08:46;;;;;;;4.13;1.27;;;;;;;19.14;28.89;101327.06;1721891;82;21139;-75
2022/05/09 10:11:23;;;;;;;2.50;1.03;;;;;;;19.21;28.01;101328.84;1711632;82;21257;-74
2022/05/09 10:13:56;;;;;;;3.80;1.20;;;;;;;19.36;27.44;101329.95;1719056;82;21498;-72
2022/05/09 10:16:48;;;;;;;3.13;1.00;;;;;;;19.49;25.72;101327.58;1721390;82;21283;-75
2022/05/09 10:19:20;;;;;;;2.45;1.02;;;;;;;19.57;25.42;101329.59;1718109;82;21024;-75
2022/05/09 10:24:48;;;;;;;2.83;1.30;;;;;;;19.64;25.67;101320.54;1680178;84;21080;-74
2022/05/09 10:27:27;;;;;;;;;;;;;;;19.68;25.78;101322.92;1693577;84;21025;-74
2022/05/09 10:29:58;;;;;;;4.10;1.37;;;;;;;19.73;25.33;101318.75;1719450;82;20482;-74
2022/05/09 10:32:37;;;;;;;3.27;1.10;;;;;;;19.76;25.10;101315.44;1721780;82;21550;-75
2022/05/09 10:35:24;;;;;;;3.53;1.10;;;;;;;19.76;24.78;101329.55;1722305;82;21456;-74
2022/05/09 10:38:06;;;;;;;3.13;1.10;;;;;;;19.76;24.74;101326.28;1708120;82;21644;-75
2022/05/09 10:40:50;;;;;;;1.53;0.83;;;;;;;19.73;25.26;101317.39;1719291;81;21084;-74
2022/05/09 10:43:28;;;;;;;1.70;0.93;;;;;;;19.65;23.75;101318.10;1723326;81;20997;-74
2022/05/09 10:45:55;;;;;;;3.17;1.00;;;;;;;19.48;23.86;101311.87;1723983;81;21044;-74
2022/05/09 10:48:34;;;;;;;2.07;1.00;;;;;;;19.45;24.60;101329.53;1725806;82;21068;-75
2022/05/09 10:51:15;;;;;;;4.80;1.00;;;;;;;19.55;24.87;101320.97;1721387;82;21528;-74
2022/05/09 10:53:59;;;;;;;2.63;1.27;;;;;;;19.63;24.52;101316.20;1718555;82;21035;-74
2022/05/09 10:56:40;;;;;;;1.93;0.90;;;;;;;19.61;23.03;101318.39;1718187;82;21159;-77
2022/05/09 10:59:27;;;;;;;2.45;1.10;;;;;;;19.50;24.01;101335.39;1722413;82;20996;-74
2022/05/09 11:02:05;;;;;;;4.50;1.00;;;;;;;19.50;24.17;101327.82;1703947;82;21064;-76
2022/05/09 11:04:36;;;;;;;2.00;1.10;;;;;;;19.57;24.52;101316.84;1722868;83;21300;-74
2022/05/09 11:07:25;;;;;;;1.93;1.00;;;;;;;19.68;25.00;101316.15;1733838;82;21024;-74
2022/05/09 11:10:30;;;;;;;2.50;1.07;;;;;;;19.75;23.87;101323.33;1717113;81;21135;-74
2022/05/09 11:13:20;;;;;;;3.70;1.10;;;;;;;19.78;23.89;101313.25;1723861;82;20966;-76
2022/05/09 11:16:19;;;;;;;1.97;0.90;;;;;;;19.80;24.69;101302.89;1722644;82;21682;-74
2022/05/09 11:19:20;;;;;;;2.23;0.93;;;;;;;19.78;25.31;101310.53;1704268;82;21138;-77
2022/05/09 11:22:19;;;;;;;2.52;0.90;;;;;;;19.76;24.73;101316.00;1686988;83;21559;-74
2022/05/09 11:25:10;;;;;;;4.13;1.00;;;;;;;19.67;24.86;101305.84;1721347;82;21071;-75
2022/05/09 11:28:17;;;;;;;3.23;1.20;;;;;;;19.61;24.83;101300.78;1708685;82;21531;-74
2022/05/09 11:30:52;;;;;;;4.43;1.10;;;;;;;19.59;25.52;101311.94;1712846;82;21056;-76
2022/05/09 11:33:41;;;;;;;2.37;0.90;;;;;;;19.60;24.73;101314.89;1708339;82;21114;-77
2022/05/09 11:36:43;;;;;;;1.50;0.90;;;;;;;19.56;24.82;101323.92;1722235;82;20976;-76
2022/05/09 11:39:41;;;;;;;2.17;0.90;;;;;;;19.50;25.20;101303.44;1722710;82;21147;-76
2022/05/09 11:46:05;;;;;;;1.70;0.87;;;;;;;19.57;25.19;101318.75;1723578;82;20938;-74
2022/05/09 11:49:05;;;;;;;3.63;1.00;;;;;;;19.63;25.36;101310.78;1749868;82;21174;-74
2022/05/09 11:51:49;;;;;;;1.47;0.90;;;;;;;19.72;24.97;101313.09;1731550;82;21434;-74
2022/05/09 11:54:43;;;;;;;2.57;1.00;;;;;;;19.76;25.40;101310.02;1749959;82;21527;-75
2022/05/09 11:57:26;;;;;;;5.50;1.57;;;;;;;19.79;25.16;101305.36;1731816;81;21018;-75
2022/05/09 11:59:55;;;;;;;1.77;0.87;;;;;;;19.78;24.67;101305.11;1748466;80;21108;-75
2022/05/09 12:02:47;;;;;;;6.03;0.90;;;;;;;19.76;25.31;101301.09;1749970;80;21163;-73
2022/05/09 12:05:31;;;;;;;2.80;0.80;;;;;;;19.80;24.72;101298.02;1748889;80;20949;-75